Penrose, Colorado
Current Conditions -  °F | °C
As of 6:20 AM on Tuesday 21 Oct 2014 (Local Time) from K1V6 Reporting Station
Clear Clear  
Wind Chill: 54°   Ceiling: Unl
Heat Index: 54°   Visibility: 10mi
Dew Point: 36°   Wind: 13mph
Humidity: 51%   Direction: 280°W
Pressure: 30.08"   Gusts: NA
Location:  38.42°N, 105.02°W
Report Text: K1V6 211220Z AUTO 28011KT 10SM CLR 12/02 A3008 RMK AO2
Loading
Personal Weather Stations






























Interactive Weather Map
Tropical Storm Tracking
New forecast layout! Learn more

10-Day Weather Forecast

Advertisements
Track Severe Weather on mobile